sensor_id;sensor_type;location;lat;lon;timestamp;pressure;altitude;pressure_sealevel;temperature;humidity
63552;BME280;49698;48.072;7.800;2023-08-20T00:01:00;99670.44;;;22.41;84.29
63552;BME280;49698;48.072;7.800;2023-08-20T00:03:32;99673.97;;;22.41;84.31
63552;BME280;49698;48.072;7.800;2023-08-20T00:06:01;99668.88;;;22.40;84.22
63552;BME280;49698;48.072;7.800;2023-08-20T00:08:30;99668.88;;;22.40;84.11
63552;BME280;49698;48.072;7.800;2023-08-20T00:10:58;99666.13;;;22.40;84.09
63552;BME280;49698;48.072;7.800;2023-08-20T00:13:26;99668.88;;;22.40;84.01
63552;BME280;49698;48.072;7.800;2023-08-20T00:15:55;99666.81;;;22.37;84.33
63552;BME280;49698;48.072;7.800;2023-08-20T00:18:24;99668.69;;;22.33;84.74
63552;BME280;49698;48.072;7.800;2023-08-20T00:20:54;99656.06;;;22.28;84.64
63552;BME280;49698;48.072;7.800;2023-08-20T00:23:23;99658.34;;;22.26;84.81
63552;BME280;49698;48.072;7.800;2023-08-20T00:25:52;99664.56;;;22.23;85.02
63552;BME280;49698;48.072;7.800;2023-08-20T00:28:20;99661.28;;;22.17;85.27
63552;BME280;49698;48.072;7.800;2023-08-20T00:30:48;99661.97;;;22.14;85.59
63552;BME280;49698;48.072;7.800;2023-08-20T00:33:17;99658.78;;;22.12;85.67
63552;BME280;49698;48.072;7.800;2023-08-20T00:35:45;99661.84;;;22.11;85.66
63552;BME280;49698;48.072;7.800;2023-08-20T00:38:14;99663.38;;;22.08;85.64
63552;BME280;49698;48.072;7.800;2023-08-20T00:40:43;99665.66;;;22.06;85.78
63552;BME280;49698;48.072;7.800;2023-08-20T00:43:11;99666.38;;;22.03;86.04
63552;BME280;49698;48.072;7.800;2023-08-20T00:45:41;99658.88;;;22.00;85.99
63552;BME280;49698;48.072;7.800;2023-08-20T00:48:10;99663.00;;;21.94;86.15
63552;BME280;49698;48.072;7.800;2023-08-20T00:50:39;99659.31;;;21.86;86.36
63552;BME280;49698;48.072;7.800;2023-08-20T00:53:09;99668.13;;;21.80;86.79
63552;BME280;49698;48.072;7.800;2023-08-20T00:55:41;99672.28;;;21.73;87.17
63552;BME280;49698;48.072;7.800;2023-08-20T00:58:10;99667.06;;;21.68;87.66
63552;BME280;49698;48.072;7.800;2023-08-20T01:00:38;99670.03;;;21.63;87.80
63552;BME280;49698;48.072;7.800;2023-08-20T01:03:07;99669.16;;;21.59;88.08
63552;BME280;49698;48.072;7.800;2023-08-20T01:05:46;99670.19;;;21.55;88.29
63552;BME280;49698;48.072;7.800;2023-08-20T01:08:25;99668.16;;;21.52;88.56
63552;BME280;49698;48.072;7.800;2023-08-20T01:11:02;99666.84;;;21.45;88.81
63552;BME280;49698;48.072;7.800;2023-08-20T01:13:33;99667.84;;;21.41;88.95
63552;BME280;49698;48.072;7.800;2023-08-20T01:16:01;99674.03;;;21.38;89.36
63552;BME280;49698;48.072;7.800;2023-08-20T01:18:29;99675.53;;;21.35;89.58
63552;BME280;49698;48.072;7.800;2023-08-20T01:21:01;99677.81;;;21.33;89.88
63552;BME280;49698;48.072;7.800;2023-08-20T01:23:53;99683.16;;;21.30;90.28
63552;BME280;49698;48.072;7.800;2023-08-20T01:26:52;99693.19;;;21.25;90.21
63552;BME280;49698;48.072;7.800;2023-08-20T01:29:26;99691.59;;;21.24;90.21
63552;BME280;49698;48.072;7.800;2023-08-20T01:31:56;99688.44;;;21.22;90.32
63552;BME280;49698;48.072;7.800;2023-08-20T01:34:25;99693.00;;;21.18;90.46
63552;BME280;49698;48.072;7.800;2023-08-20T01:36:53;99703.03;;;21.14;90.63
63552;BME280;49698;48.072;7.800;2023-08-20T01:39:21;99710.66;;;21.09;90.88
63552;BME280;49698;48.072;7.800;2023-08-20T01:41:50;99700.78;;;21.04;90.95
63552;BME280;49698;48.072;7.800;2023-08-20T01:44:18;99700.31;;;21.02;91.20
63552;BME280;49698;48.072;7.800;2023-08-20T01:46:47;99701.03;;;20.99;91.09
63552;BME280;49698;48.072;7.800;2023-08-20T01:49:16;99711.84;;;20.95;91.38
63552;BME280;49698;48.072;7.800;2023-08-20T01:51:44;99707.84;;;20.93;91.82
63552;BME280;49698;48.072;7.800;2023-08-20T01:54:12;99713.31;;;20.93;91.99
63552;BME280;49698;48.072;7.800;2023-08-20T01:56:40;99720.72;;;20.92;91.96
63552;BME280;49698;48.072;7.800;2023-08-20T01:59:08;99719.94;;;20.92;92.39
63552;BME280;49698;48.072;7.800;2023-08-20T02:01:39;99717.19;;;20.92;92.20
63552;BME280;49698;48.072;7.800;2023-08-20T02:04:10;99715.16;;;20.89;92.45
63552;BME280;49698;48.072;7.800;2023-08-20T02:06:38;99713.88;;;20.86;92.68
63552;BME280;49698;48.072;7.800;2023-08-20T02:09:09;99726.31;;;20.84;92.86
63552;BME280;49698;48.072;7.800;2023-08-20T02:11:37;99723.13;;;20.82;92.88
63552;BME280;49698;48.072;7.800;2023-08-20T02:14:05;99721.53;;;20.81;92.98
63552;BME280;49698;48.072;7.800;2023-08-20T02:16:33;99718.81;;;20.81;92.81
63552;BME280;49698;48.072;7.800;2023-08-20T02:19:03;99714.50;;;20.80;93.06
63552;BME280;49698;48.072;7.800;2023-08-20T02:21:34;99715.97;;;20.77;93.67
63552;BME280;49698;48.072;7.800;2023-08-20T02:24:03;99709.22;;;20.74;93.42
63552;BME280;49698;48.072;7.800;2023-08-20T02:26:31;99708.00;;;20.72;93.42
63552;BME280;49698;48.072;7.800;2023-08-20T02:28:59;99696.97;;;20.68;93.69
63552;BME280;49698;48.072;7.800;2023-08-20T02:31:28;99696.19;;;20.68;93.67
63552;BME280;49698;48.072;7.800;2023-08-20T02:33:56;99696.19;;;20.68;93.62
63552;BME280;49698;48.072;7.800;2023-08-20T02:36:25;99689.44;;;20.65;93.65
63552;BME280;49698;48.072;7.800;2023-08-20T02:38:56;99684.66;;;20.62;93.53
63552;BME280;49698;48.072;7.800;2023-08-20T02:41:24;99688.09;;;20.59;93.63
63552;BME280;49698;48.072;7.800;2023-08-20T02:43:52;99681.03;;;20.58;93.50
63552;BME280;49698;48.072;7.800;2023-08-20T02:46:20;99685.59;;;20.54;93.75
63552;BME280;49698;48.072;7.800;2023-08-20T02:48:48;99683.53;;;20.51;93.85
63552;BME280;49698;48.072;7.800;2023-08-20T02:51:16;99682.75;;;20.50;93.84
63552;BME280;49698;48.072;7.800;2023-08-20T02:53:44;99684.69;;;20.50;93.83
63552;BME280;49698;48.072;7.800;2023-08-20T02:56:14;99683.53;;;20.51;93.70
63552;BME280;49698;48.072;7.800;2023-08-20T02:58:42;99691.72;;;20.51;93.69
63552;BME280;49698;48.072;7.800;2023-08-20T03:01:17;99688.22;;;20.50;93.47
63552;BME280;49698;48.072;7.800;2023-08-20T03:03:46;99687.06;;;20.51;93.46
63552;BME280;49698;48.072;7.800;2023-08-20T03:06:14;99683.09;;;20.49;93.36
63552;BME280;49698;48.072;7.800;2023-08-20T03:08:42;99676.69;;;20.45;93.54
63552;BME280;49698;48.072;7.800;2023-08-20T03:11:11;99681.94;;;20.38;93.58
63552;BME280;49698;48.072;7.800;2023-08-20T03:16:50;99674.19;;;20.15;95.36
63552;BME280;49698;48.072;7.800;2023-08-20T03:19:18;99663.50;;;20.10;95.87
63552;BME280;49698;48.072;7.800;2023-08-20T03:21:47;99668.47;;;20.08;95.94
63552;BME280;49698;48.072;7.800;2023-08-20T03:24:16;99667.22;;;20.06;95.98
63552;BME280;49698;48.072;7.800;2023-08-20T03:26:45;99659.84;;;20.06;96.02
63552;BME280;49698;48.072;7.800;2023-08-20T03:29:15;99655.19;;;20.07;95.99
63552;BME280;49698;48.072;7.800;2023-08-20T03:31:43;99656.66;;;20.04;96.08
63552;BME280;49698;48.072;7.800;2023-08-20T03:34:13;99649.63;;;20.03;96.36
63552;BME280;49698;48.072;7.800;2023-08-20T03:36:42;99645.63;;;20.00;96.69
63552;BME280;49698;48.072;7.800;2023-08-20T03:39:13;99645.06;;;19.95;96.79
63552;BME280;49698;48.072;7.800;2023-08-20T03:41:43;99647.66;;;19.91;97.19
63552;BME280;49698;48.072;7.800;2023-08-20T03:44:14;99650.28;;;19.88;97.46
63552;BME280;49698;48.072;7.800;2023-08-20T03:46:43;99659.25;;;19.88;97.62
63552;BME280;49698;48.072;7.800;2023-08-20T03:49:14;99661.63;;;19.90;97.50
63552;BME280;49698;48.072;7.800;2023-08-20T03:51:43;99674.16;;;19.91;97.50
63552;BME280;49698;48.072;7.800;2023-08-20T03:54:11;99684.03;;;19.83;97.41
63552;BME280;49698;48.072;7.800;2023-08-20T03:56:39;99683.66;;;19.72;97.77
63552;BME280;49698;48.072;7.800;2023-08-20T03:59:07;99678.28;;;19.64;98.20
63552;BME280;49698;48.072;7.800;2023-08-20T04:01:35;99679.25;;;19.59;98.57
63552;BME280;49698;48.072;7.800;2023-08-20T04:04:04;99683.13;;;19.58;98.74
63552;BME280;49698;48.072;7.800;2023-08-20T04:06:33;99680.06;;;19.60;98.91
63552;BME280;49698;48.072;7.800;2023-08-20T04:09:01;99681.34;;;19.62;98.68
63552;BME280;49698;48.072;7.800;2023-08-20T04:11:30;99682.59;;;19.65;98.90
63552;BME280;49698;48.072;7.800;2023-08-20T04:13:58;99687.41;;;19.68;98.64
63552;BME280;49698;48.072;7.800;2023-08-20T04:16:29;99694.91;;;19.71;98.33
63552;BME280;49698;48.072;7.800;2023-08-20T04:18:59;99693.09;;;19.75;97.94
63552;BME280;49698;48.072;7.800;2023-08-20T04:21:28;99692.41;;;19.78;98.05
63552;BME280;49698;48.072;7.800;2023-08-20T04:23:59;99697.19;;;19.81;97.63
63552;BME280;49698;48.072;7.800;2023-08-20T04:26:28;99699.59;;;19.83;97.60
63552;BME280;49698;48.072;7.800;2023-08-20T04:28:56;99702.78;;;19.85;97.42
63552;BME280;49698;48.072;7.800;2023-08-20T04:31:24;99701.75;;;19.89;97.39
63552;BME280;49698;48.072;7.800;2023-08-20T04:34:01;99713.59;;;19.93;97.36
63552;BME280;49698;48.072;7.800;2023-08-20T04:36:50;99705.53;;;19.97;97.20
63552;BME280;49698;48.072;7.800;2023-08-20T04:39:24;99707.94;;;19.98;96.92
63552;BME280;49698;48.072;7.800;2023-08-20T04:41:53;99713.84;;;20.00;96.96
63552;BME280;49698;48.072;7.800;2023-08-20T04:44:24;99706.91;;;20.03;96.90
63552;BME280;49698;48.072;7.800;2023-08-20T04:46:54;99707.03;;;20.07;96.59
63552;BME280;49698;48.072;7.800;2023-08-20T04:49:22;99710.56;;;20.07;96.83
63552;BME280;49698;48.072;7.800;2023-08-20T04:51:52;99715.34;;;20.10;96.82
63552;BME280;49698;48.072;7.800;2023-08-20T04:54:21;99709.88;;;20.10;96.78
63552;BME280;49698;48.072;7.800;2023-08-20T04:56:52;99713.41;;;20.11;96.65
63552;BME280;49698;48.072;7.800;2023-08-20T04:59:21;99720.09;;;20.13;96.90
63552;BME280;49698;48.072;7.800;2023-08-20T05:02:17;99719.00;;;20.14;97.03
63552;BME280;49698;48.072;7.800;2023-08-20T05:04:51;99722.16;;;20.16;96.67
63552;BME280;49698;48.072;7.800;2023-08-20T05:07:19;99728.88;;;20.19;96.54
63552;BME280;49698;48.072;7.800;2023-08-20T05:09:49;99736.72;;;20.20;96.21
63552;BME280;49698;48.072;7.800;2023-08-20T05:12:19;99736.06;;;20.23;95.99
63552;BME280;49698;48.072;7.800;2023-08-20T05:14:48;99740.84;;;20.26;96.03
63552;BME280;49698;48.072;7.800;2023-08-20T05:17:16;99740.16;;;20.30;95.83
63552;BME280;49698;48.072;7.800;2023-08-20T05:19:44;99745.75;;;20.33;95.81
63552;BME280;49698;48.072;7.800;2023-08-20T05:22:12;99738.00;;;20.35;95.81
63552;BME280;49698;48.072;7.800;2023-08-20T05:24:41;99741.19;;;20.37;95.66
63552;BME280;49698;48.072;7.800;2023-08-20T05:27:11;99752.25;;;20.41;95.52
63552;BME280;49698;48.072;7.800;2023-08-20T05:29:44;99755.41;;;20.43;95.41
63552;BME280;49698;48.072;7.800;2023-08-20T05:32:13;99753.16;;;20.45;95.32
63552;BME280;49698;48.072;7.800;2023-08-20T05:34:43;99757.47;;;20.46;95.13
63552;BME280;49698;48.072;7.800;2023-08-20T05:37:11;99750.41;;;20.45;95.40
63552;BME280;49698;48.072;7.800;2023-08-20T05:39:41;99757.47;;;20.46;95.41
63552;BME280;49698;48.072;7.800;2023-08-20T05:42:10;99758.63;;;20.45;95.54
63552;BME280;49698;48.072;7.800;2023-08-20T05:44:44;99759.72;;;20.44;95.81
63552;BME280;49698;48.072;7.800;2023-08-20T05:47:16;99745.63;;;20.42;95.80
63552;BME280;49698;48.072;7.800;2023-08-20T05:49:44;99749.50;;;20.41;95.86
63552;BME280;49698;48.072;7.800;2023-08-20T05:52:14;99759.28;;;20.42;95.91
63552;BME280;49698;48.072;7.800;2023-08-20T05:54:43;99767.91;;;20.44;95.87
63552;BME280;49698;48.072;7.800;2023-08-20T05:57:11;99769.97;;;20.47;95.71
63552;BME280;49698;48.072;7.800;2023-08-20T05:59:41;99760.34;;;20.49;95.85
63552;BME280;49698;48.072;7.800;2023-08-20T06:02:15;99771.03;;;20.55;95.62
63552;BME280;49698;48.072;7.800;2023-08-20T06:04:44;99774.34;;;20.60;95.62
63552;BME280;49698;48.072;7.800;2023-08-20T06:07:13;99767.06;;;20.64;95.05
63552;BME280;49698;48.072;7.800;2023-08-20T06:09:41;99765.69;;;20.70;94.66
63552;BME280;49698;48.072;7.800;2023-08-20T06:12:10;99775.28;;;20.76;94.50
63552;BME280;49698;48.072;7.800;2023-08-20T06:14:44;99770.81;;;20.84;94.00
63552;BME280;49698;48.072;7.800;2023-08-20T06:17:14;99768.66;;;20.90;93.71
63552;BME280;49698;48.072;7.800;2023-08-20T06:19:44;99777.88;;;20.97;93.48
63552;BME280;49698;48.072;7.800;2023-08-20T06:22:16;99767.94;;;21.05;93.27
63552;BME280;49698;48.072;7.800;2023-08-20T06:24:44;99769.75;;;21.13;92.88
63552;BME280;49698;48.072;7.800;2023-08-20T06:27:12;99786.06;;;21.22;92.47
63552;BME280;49698;48.072;7.800;2023-08-20T06:29:41;99781.59;;;21.30;92.21
63552;BME280;49698;48.072;7.800;2023-08-20T06:32:11;99783.44;;;21.38;91.70
63552;BME280;49698;48.072;7.800;2023-08-20T06:34:40;99788.41;;;21.48;91.51
63552;BME280;49698;48.072;7.800;2023-08-20T06:37:08;99791.00;;;21.57;91.02
63552;BME280;49698;48.072;7.800;2023-08-20T06:39:36;99792.91;;;21.68;90.42
63552;BME280;49698;48.072;7.800;2023-08-20T06:42:05;99789.66;;;21.79;89.98
63552;BME280;49698;48.072;7.800;2023-08-20T06:44:33;99781.75;;;21.89;89.76
63552;BME280;49698;48.072;7.800;2023-08-20T06:47:02;99784.78;;;22.00;89.55
63552;BME280;49698;48.072;7.800;2023-08-20T06:49:30;99794.09;;;22.11;89.59
63552;BME280;49698;48.072;7.800;2023-08-20T06:52:00;99796.78;;;22.24;89.86
63552;BME280;49698;48.072;7.800;2023-08-20T06:54:28;99803.34;;;22.35;89.48
63552;BME280;49698;48.072;7.800;2023-08-20T06:56:56;99800.41;;;22.43;89.42
63552;BME280;49698;48.072;7.800;2023-08-20T06:59:24;99803.69;;;22.49;89.97
63552;BME280;49698;48.072;7.800;2023-08-20T07:01:52;99806.19;;;22.54;90.22
63552;BME280;49698;48.072;7.800;2023-08-20T07:04:20;99809.34;;;22.56;90.43
63552;BME280;49698;48.072;7.800;2023-08-20T07:06:48;99811.03;;;22.61;90.19
63552;BME280;49698;48.072;7.800;2023-08-20T07:09:17;99808.47;;;22.68;90.05
63552;BME280;49698;48.072;7.800;2023-08-20T07:11:46;99808.28;;;22.77;89.77
63552;BME280;49698;48.072;7.800;2023-08-20T07:14:15;99806.16;;;22.86;89.47
63552;BME280;49698;48.072;7.800;2023-08-20T07:16:43;99811.13;;;22.96;89.30
63552;BME280;49698;48.072;7.800;2023-08-20T07:19:11;99819.97;;;23.05;88.81
63552;BME280;49698;48.072;7.800;2023-08-20T07:21:39;99817.47;;;23.16;88.50
63552;BME280;49698;48.072;7.800;2023-08-20T07:24:07;99817.78;;;23.30;87.83
63552;BME280;49698;48.072;7.800;2023-08-20T07:26:36;99809.94;;;23.48;87.32
63552;BME280;49698;48.072;7.800;2023-08-20T07:29:05;99821.03;;;23.71;86.15
63552;BME280;49698;48.072;7.800;2023-08-20T07:31:33;99810.53;;;23.96;85.19
63552;BME280;49698;48.072;7.800;2023-08-20T07:34:02;99816.88;;;24.20;83.69
63552;BME280;49698;48.072;7.800;2023-08-20T07:36:31;99809.47;;;24.43;82.77
63552;BME280;49698;48.072;7.800;2023-08-20T07:39:00;99811.31;;;24.58;81.95
63552;BME280;49698;48.072;7.800;2023-08-20T07:41:28;99817.00;;;24.69;81.17
63552;BME280;49698;48.072;7.800;2023-08-20T07:43:58;99813.56;;;24.76;80.70
63552;BME280;49698;48.072;7.800;2023-08-20T07:46:26;99807.69;;;24.77;80.67
63552;BME280;49698;48.072;7.800;2023-08-20T07:48:55;99815.59;;;24.79;80.76
63552;BME280;49698;48.072;7.800;2023-08-20T07:51:23;99818.75;;;24.81;80.71
63552;BME280;49698;48.072;7.800;2023-08-20T07:53:51;99819.25;;;24.86;80.62
63552;BME280;49698;48.072;7.800;2023-08-20T07:56:19;99821.28;;;24.93;80.30
63552;BME280;49698;48.072;7.800;2023-08-20T07:58:47;99811.16;;;24.97;80.41
63552;BME280;49698;48.072;7.800;2023-08-20T08:01:17;99819.56;;;25.08;80.03
63552;BME280;49698;48.072;7.800;2023-08-20T08:03:45;99813.94;;;25.24;79.27
63552;BME280;49698;48.072;7.800;2023-08-20T08:06:13;99811.00;;;25.40;78.66
63552;BME280;49698;48.072;7.800;2023-08-20T08:08:42;99806.53;;;25.58;77.91
63552;BME280;49698;48.072;7.800;2023-08-20T08:11:11;99809.94;;;25.78;77.44
63552;BME280;49698;48.072;7.800;2023-08-20T08:13:39;99816.47;;;25.96;76.57
63552;BME280;49698;48.072;7.800;2023-08-20T08:16:07;99815.06;;;26.13;75.73
63552;BME280;49698;48.072;7.800;2023-08-20T08:18:36;99817.56;;;26.25;75.00
63552;BME280;49698;48.072;7.800;2023-08-20T08:21:04;99816.16;;;26.42;74.10
63552;BME280;49698;48.072;7.800;2023-08-20T08:23:32;99815.13;;;26.57;73.44
63552;BME280;49698;48.072;7.800;2023-08-20T08:26:00;99809.31;;;26.70;72.84
63552;BME280;49698;48.072;7.800;2023-08-20T08:28:29;99816.94;;;26.83;72.03
63552;BME280;49698;48.072;7.800;2023-08-20T08:30:57;99818.19;;;26.97;71.31
63552;BME280;49698;48.072;7.800;2023-08-20T08:33:25;99819.44;;;27.06;71.01
63552;BME280;49698;48.072;7.800;2023-08-20T08:35:55;99819.53;;;27.14;70.91
63552;BME280;49698;48.072;7.800;2023-08-20T08:38:23;99823.09;;;27.18;70.30
63552;BME280;49698;48.072;7.800;2023-08-20T08:40:52;99825.13;;;27.28;70.10
63552;BME280;49698;48.072;7.800;2023-08-20T08:43:21;99819.28;;;27.40;69.79
63552;BME280;49698;48.072;7.800;2023-08-20T08:45:49;99818.56;;;27.54;69.00
63552;BME280;49698;48.072;7.800;2023-08-20T08:48:20;99815.09;;;27.71;68.63
63552;BME280;49698;48.072;7.800;2023-08-20T08:50:50;99816.41;;;27.92;67.86
63552;BME280;49698;48.072;7.800;2023-08-20T08:53:21;99822.72;;;28.07;67.11
63552;BME280;49698;48.072;7.800;2023-08-20T08:55:50;99821.19;;;28.13;66.76
63552;BME280;49698;48.072;7.800;2023-08-20T08:58:18;99823.97;;;28.20;66.36
63552;BME280;49698;48.072;7.800;2023-08-20T09:00:46;99829.50;;;28.27;65.73
63552;BME280;49698;48.072;7.800;2023-08-20T09:03:15;99822.84;;;28.39;64.95
63552;BME280;49698;48.072;7.800;2023-08-20T09:05:47;99816.94;;;28.47;63.98
63552;BME280;49698;48.072;7.800;2023-08-20T09:08:21;99815.34;;;28.53;63.44
63552;BME280;49698;48.072;7.800;2023-08-20T09:10:50;99813.00;;;28.63;63.17
63552;BME280;49698;48.072;7.800;2023-08-20T09:13:23;99818.91;;;28.72;62.57
63552;BME280;49698;48.072;7.800;2023-08-20T09:15:52;99816.53;;;28.81;62.31
63552;BME280;49698;48.072;7.800;2023-08-20T09:18:20;99810.19;;;28.91;61.95
63552;BME280;49698;48.072;7.800;2023-08-20T09:20:49;99813.00;;;28.98;61.51
63552;BME280;49698;48.072;7.800;2023-08-20T09:23:17;99810.22;;;29.02;61.47
63552;BME280;49698;48.072;7.800;2023-08-20T09:25:58;99809.81;;;29.11;61.93
63552;BME280;49698;48.072;7.800;2023-08-20T09:28:30;99812.56;;;29.18;61.88
63552;BME280;49698;48.072;7.800;2023-08-20T09:31:08;99814.91;;;29.30;61.53
63552;BME280;49698;48.072;7.800;2023-08-20T09:33:37;99810.91;;;29.38;61.04
63552;BME280;49698;48.072;7.800;2023-08-20T09:36:16;99815.28;;;29.39;61.06
63552;BME280;49698;48.072;7.800;2023-08-20T09:38:44;99809.38;;;29.23;61.67
63552;BME280;49698;48.072;7.800;2023-08-20T09:41:15;99811.38;;;29.19;61.77
63552;BME280;49698;48.072;7.800;2023-08-20T09:43:44;99808.59;;;29.26;61.56
63552;BME280;49698;48.072;7.800;2023-08-20T09:46:16;99807.78;;;29.33;61.08
63552;BME280;49698;48.072;7.800;2023-08-20T09:48:46;99808.53;;;29.44;61.03
63552;BME280;49698;48.072;7.800;2023-08-20T09:51:19;99806.91;;;29.54;60.58
63552;BME280;49698;48.072;7.800;2023-08-20T09:54:00;99800.59;;;29.64;60.32
63552;BME280;49698;48.072;7.800;2023-08-20T09:56:31;99796.59;;;29.68;59.95
63552;BME280;49698;48.072;7.800;2023-08-20T09:59:06;99801.31;;;29.75;59.52
63552;BME280;49698;48.072;7.800;2023-08-20T10:01:35;99794.97;;;29.78;59.60
63552;BME280;49698;48.072;7.800;2023-08-20T10:04:05;99800.09;;;29.83;59.84
63552;BME280;49698;48.072;7.800;2023-08-20T10:06:34;99796.88;;;29.92;59.34
63552;BME280;49698;48.072;7.800;2023-08-20T10:09:04;99793.25;;;30.02;58.68
63552;BME280;49698;48.072;7.800;2023-08-20T10:11:35;99801.53;;;30.13;58.46
63552;BME280;49698;48.072;7.800;2023-08-20T10:14:04;99795.16;;;30.19;58.34
63552;BME280;49698;48.072;7.800;2023-08-20T10:16:33;99805.09;;;30.17;58.33
63552;BME280;49698;48.072;7.800;2023-08-20T10:19:02;99797.13;;;30.19;58.51
63552;BME280;49698;48.072;7.800;2023-08-20T10:21:31;99794.78;;;30.17;58.68
63552;BME280;49698;48.072;7.800;2023-08-20T10:24:03;99792.00;;;30.14;58.95
63552;BME280;49698;48.072;7.800;2023-08-20T10:26:34;99795.53;;;30.25;59.16
63552;BME280;49698;48.072;7.800;2023-08-20T10:29:36;99789.94;;;30.32;58.66
63552;BME280;49698;48.072;7.800;2023-08-20T10:32:06;99796.25;;;30.33;58.71
63552;BME280;49698;48.072;7.800;2023-08-20T10:34:36;99789.06;;;30.39;58.50
63552;BME280;49698;48.072;7.800;2023-08-20T10:37:13;99796.94;;;30.48;58.55
63552;BME280;49698;48.072;7.800;2023-08-20T10:39:41;99789.75;;;30.54;58.35
63552;BME280;49698;48.072;7.800;2023-08-20T10:42:22;99795.22;;;30.64;57.96
63552;BME280;49698;48.072;7.800;2023-08-20T10:44:56;99790.00;;;30.70;57.67
63552;BME280;49698;48.072;7.800;2023-08-20T10:47:25;99786.91;;;30.64;58.16
63552;BME280;49698;48.072;7.800;2023-08-20T10:49:54;99785.78;;;30.55;57.76
63552;BME280;49698;48.072;7.800;2023-08-20T10:52:23;99781.44;;;30.54;57.99
63552;BME280;49698;48.072;7.800;2023-08-20T10:54:51;99780.63;;;30.57;57.82
63552;BME280;49698;48.072;7.800;2023-08-20T10:57:21;99779.34;;;30.65;58.09
63552;BME280;49698;48.072;7.800;2023-08-20T10:59:56;99772.97;;;30.72;57.96
63552;BME280;49698;48.072;7.800;2023-08-20T11:02:26;99775.78;;;30.68;58.43
63552;BME280;49698;48.072;7.800;2023-08-20T11:04:55;99773.91;;;30.54;58.68
63552;BME280;49698;48.072;7.800;2023-08-20T11:07:24;99772.44;;;30.39;58.99
63552;BME280;49698;48.072;7.800;2023-08-20T11:09:54;99771.38;;;30.22;59.78
63552;BME280;49698;48.072;7.800;2023-08-20T11:12:24;99766.28;;;30.17;59.96
63552;BME280;49698;48.072;7.800;2023-08-20T11:14:52;99760.28;;;30.22;60.21
63552;BME280;49698;48.072;7.800;2023-08-20T11:17:20;99759.00;;;30.34;59.66
63552;BME280;49698;48.072;7.800;2023-08-20T11:19:48;99758.91;;;30.48;59.13
63552;BME280;49698;48.072;7.800;2023-08-20T11:22:21;99767.94;;;30.59;59.21
63552;BME280;49698;48.072;7.800;2023-08-20T11:24:49;99761.91;;;30.68;58.77
63552;BME280;49698;48.072;7.800;2023-08-20T11:27:17;99763.84;;;30.75;58.71
63552;BME280;49698;48.072;7.800;2023-08-20T11:29:47;99761.41;;;30.80;58.33
63552;BME280;49698;48.072;7.800;2023-08-20T11:32:16;99752.63;;;30.85;57.85
63552;BME280;49698;48.072;7.800;2023-08-20T11:34:44;99757.31;;;30.92;57.83
63552;BME280;49698;48.072;7.800;2023-08-20T11:37:12;99751.31;;;30.97;56.97
63552;BME280;49698;48.072;7.800;2023-08-20T11:39:41;99748.94;;;30.99;57.23
63552;BME280;49698;48.072;7.800;2023-08-20T11:42:10;99742.91;;;31.04;57.07
63552;BME280;49698;48.072;7.800;2023-08-20T11:44:42;99741.66;;;31.09;56.95
63552;BME280;49698;48.072;7.800;2023-08-20T11:47:17;99736.06;;;31.12;56.89
63552;BME280;49698;48.072;7.800;2023-08-20T11:49:45;99745.56;;;31.15;56.91
63552;BME280;49698;48.072;7.800;2023-08-20T11:52:13;99739.97;;;31.18;56.39
63552;BME280;49698;48.072;7.800;2023-08-20T11:54:44;99741.50;;;31.23;56.31
63552;BME280;49698;48.072;7.800;2023-08-20T11:57:12;99740.69;;;31.26;56.55
63552;BME280;49698;48.072;7.800;2023-08-20T11:59:40;99735.47;;;31.32;55.91
63552;BME280;49698;48.072;7.800;2023-08-20T12:02:08;99726.38;;;31.31;55.89
63552;BME280;49698;48.072;7.800;2023-08-20T12:04:37;99729.53;;;31.33;55.45
63552;BME280;49698;48.072;7.800;2023-08-20T12:07:08;99723.97;;;31.33;55.45
63552;BME280;49698;48.072;7.800;2023-08-20T12:09:58;99729.16;;;31.31;55.17
63552;BME280;49698;48.072;7.800;2023-08-20T12:12:35;99725.53;;;31.34;55.14
63552;BME280;49698;48.072;7.800;2023-08-20T12:15:10;99721.84;;;31.45;54.65
63552;BME280;49698;48.072;7.800;2023-08-20T12:17:38;99719.75;;;31.52;54.51
63552;BME280;49698;48.072;7.800;2023-08-20T12:20:08;99719.63;;;31.59;54.41
63552;BME280;49698;48.072;7.800;2023-08-20T12:22:39;99714.81;;;31.63;54.67
63552;BME280;49698;48.072;7.800;2023-08-20T12:25:07;99719.16;;;31.68;54.30
63552;BME280;49698;48.072;7.800;2023-08-20T12:27:35;99713.94;;;31.70;54.30
63552;BME280;49698;48.072;7.800;2023-08-20T12:30:04;99711.06;;;31.77;54.54
63552;BME280;49698;48.072;7.800;2023-08-20T12:32:32;99716.53;;;31.84;53.95
63552;BME280;49698;48.072;7.800;2023-08-20T12:35:01;99712.56;;;31.85;54.06
63552;BME280;49698;48.072;7.800;2023-08-20T12:37:30;99705.78;;;31.86;54.42
63552;BME280;49698;48.072;7.800;2023-08-20T12:40:02;99711.34;;;31.86;53.98
63552;BME280;49698;48.072;7.800;2023-08-20T12:42:34;99711.34;;;31.86;53.68
63552;BME280;49698;48.072;7.800;2023-08-20T12:45:03;99704.16;;;31.89;53.14
63552;BME280;49698;48.072;7.800;2023-08-20T12:47:32;99698.56;;;31.93;53.22
63552;BME280;49698;48.072;7.800;2023-08-20T12:50:00;99699.28;;;31.97;53.16
63552;BME280;49698;48.072;7.800;2023-08-20T12:52:32;99711.97;;;31.98;53.12
63552;BME280;49698;48.072;7.800;2023-08-20T12:55:00;99711.19;;;31.97;52.79
63552;BME280;49698;48.072;7.800;2023-08-20T12:57:29;99704.50;;;31.95;53.25
63552;BME280;49698;48.072;7.800;2023-08-20T12:59:58;99704.13;;;31.93;52.89
63552;BME280;49698;48.072;7.800;2023-08-20T13:02:27;99697.06;;;31.84;53.26
63552;BME280;49698;48.072;7.800;2023-08-20T13:04:55;99707.44;;;31.80;53.23
63552;BME280;49698;48.072;7.800;2023-08-20T13:07:25;99706.63;;;31.83;53.32
63552;BME280;49698;48.072;7.800;2023-08-20T13:09:55;99697.81;;;31.88;52.78
63552;BME280;49698;48.072;7.800;2023-08-20T13:12:27;99697.72;;;31.96;53.03
63552;BME280;49698;48.072;7.800;2023-08-20T13:14:55;99706.78;;;32.00;52.85
63552;BME280;49698;48.072;7.800;2023-08-20T13:17:24;99696.41;;;32.04;52.76